sensor_id;sensor_type;location;lat;lon;timestamp;pressure;altitude;pressure_sealevel;temperature;humidity
9784;BME280;4931;44.874;-1.092;2024-02-21T00:00:34;102499.28;;;6.68;100.00
9784;BME280;4931;44.874;-1.092;2024-02-21T00:02:59;102490.06;;;6.55;100.00
9784;BME280;4931;44.874;-1.092;2024-02-21T00:05:27;102491.13;;;6.47;100.00
9784;BME280;4931;44.874;-1.092;2024-02-21T00:07:52;102476.84;;;6.39;100.00
9784;BME280;4931;44.874;-1.092;2024-02-21T00:10:18;102470.38;;;6.33;100.00
9784;BME280;4931;44.874;-1.092;2024-02-21T00:12:44;102463.00;;;6.40;100.00
9784;BME280;4931;44.874;-1.092;2024-02-21T00:15:09;102458.41;;;6.47;100.00
9784;BME280;4931;44.874;-1.092;2024-02-21T00:17:35;102458.59;;;6.39;100.00
9784;BME280;4931;44.874;-1.092;2024-02-21T00:20:00;102452.09;;;6.47;100.00
9784;BME280;4931;44.874;-1.092;2024-02-21T00:22:26;102454.22;;;6.52;100.00
9784;BME280;4931;44.874;-1.092;2024-02-21T00:24:54;102453.78;;;6.55;100.00
9784;BME280;4931;44.874;-1.092;2024-02-21T00:27:19;102447.88;;;6.58;100.00
9784;BME280;4931;44.874;-1.092;2024-02-21T00:29:45;102445.59;;;6.55;100.00
9784;BME280;4931;44.874;-1.092;2024-02-21T00:32:10;102443.06;;;6.60;100.00
9784;BME280;4931;44.874;-1.092;2024-02-21T00:34:36;102434.88;;;6.67;100.00
9784;BME280;4931;44.874;-1.092;2024-02-21T00:37:01;102425.66;;;6.61;100.00
9784;BME280;4931;44.874;-1.092;2024-02-21T00:39:27;102425.03;;;6.59;100.00
9784;BME280;4931;44.874;-1.092;2024-02-21T00:41:52;102422.31;;;6.59;100.00
9784;BME280;4931;44.874;-1.092;2024-02-21T00:44:18;102416.63;;;6.60;100.00
9784;BME280;4931;44.874;-1.092;2024-02-21T00:46:44;102419.78;;;6.64;100.00
9784;BME280;4931;44.874;-1.092;2024-02-21T00:49:09;102404.66;;;6.68;100.00
9784;BME280;4931;44.874;-1.092;2024-02-21T00:51:34;102407.38;;;6.75;100.00
9784;BME280;4931;44.874;-1.092;2024-02-21T00:54:00;102401.28;;;6.79;100.00
9784;BME280;4931;44.874;-1.092;2024-02-21T00:56:26;102393.31;;;6.78;100.00
9784;BME280;4931;44.874;-1.092;2024-02-21T00:58:52;102405.47;;;6.82;100.00
9784;BME280;4931;44.874;-1.092;2024-02-21T01:01:22;102401.25;;;6.86;100.00
9784;BME280;4931;44.874;-1.092;2024-02-21T01:03:48;102400.25;;;6.74;100.00
9784;BME280;4931;44.874;-1.092;2024-02-21T01:06:16;102394.16;;;6.72;100.00
9784;BME280;4931;44.874;-1.092;2024-02-21T01:08:42;102396.91;;;6.72;100.00
9784;BME280;4931;44.874;-1.092;2024-02-21T01:11:07;102385.38;;;6.63;100.00
9784;BME280;4931;44.874;-1.092;2024-02-21T01:13:32;102385.63;;;6.55;100.00
9784;BME280;4931;44.874;-1.092;2024-02-21T01:15:58;102383.09;;;6.53;100.00
9784;BME280;4931;44.874;-1.092;2024-02-21T01:18:23;102379.16;;;6.42;100.00
9784;BME280;4931;44.874;-1.092;2024-02-21T01:20:49;102382.50;;;6.31;100.00
9784;BME280;4931;44.874;-1.092;2024-02-21T01:23:14;102391.53;;;6.25;100.00
9784;BME280;4931;44.874;-1.092;2024-02-21T01:25:40;102386.72;;;6.27;100.00
9784;BME280;4931;44.874;-1.092;2024-02-21T01:28:05;102380.22;;;6.28;100.00
9784;BME280;4931;44.874;-1.092;2024-02-21T01:30:30;102375.38;;;6.17;100.00
9784;BME280;4931;44.874;-1.092;2024-02-21T01:32:56;102377.91;;;6.05;100.00
9784;BME280;4931;44.874;-1.092;2024-02-21T01:35:21;102371.56;;;5.97;100.00
9784;BME280;4931;44.874;-1.092;2024-02-21T01:37:47;102373.06;;;5.93;100.00
9784;BME280;4931;44.874;-1.092;2024-02-21T01:40:13;102374.09;;;5.86;100.00
9784;BME280;4931;44.874;-1.092;2024-02-21T01:42:39;102384.59;;;5.89;100.00
9784;BME280;4931;44.874;-1.092;2024-02-21T01:45:06;102378.50;;;5.87;100.00
9784;BME280;4931;44.874;-1.092;2024-02-21T01:47:31;102369.50;;;5.73;100.00
9784;BME280;4931;44.874;-1.092;2024-02-21T01:49:57;102377.84;;;5.58;100.00
9784;BME280;4931;44.874;-1.092;2024-02-21T01:52:23;102369.88;;;5.49;100.00
9784;BME280;4931;44.874;-1.092;2024-02-21T01:54:49;102369.88;;;5.49;100.00
9784;BME280;4931;44.874;-1.092;2024-02-21T01:57:15;102357.31;;;5.48;100.00
9784;BME280;4931;44.874;-1.092;2024-02-21T01:59:40;102358.78;;;5.51;100.00
9784;BME280;4931;44.874;-1.092;2024-02-21T02:02:06;102354.78;;;5.54;100.00
9784;BME280;4931;44.874;-1.092;2024-02-21T02:04:32;102348.94;;;5.57;100.00
9784;BME280;4931;44.874;-1.092;2024-02-21T02:07:00;102346.41;;;5.55;100.00
9784;BME280;4931;44.874;-1.092;2024-02-21T02:09:27;102339.72;;;5.58;100.00
9784;BME280;4931;44.874;-1.092;2024-02-21T02:11:53;102320.88;;;5.49;100.00
9784;BME280;4931;44.874;-1.092;2024-02-21T02:14:18;102320.66;;;5.44;100.00
9784;BME280;4931;44.874;-1.092;2024-02-21T02:16:46;102316.88;;;5.39;100.00
9784;BME280;4931;44.874;-1.092;2024-02-21T02:19:13;102317.94;;;5.44;100.00
9784;BME280;4931;44.874;-1.092;2024-02-21T02:21:40;102308.94;;;5.44;100.00
9784;BME280;4931;44.874;-1.092;2024-02-21T02:24:07;102299.53;;;5.40;100.00
9784;BME280;4931;44.874;-1.092;2024-02-21T02:26:32;102287.56;;;5.41;100.00
9784;BME280;4931;44.874;-1.092;2024-02-21T02:28:58;102287.78;;;5.39;100.00
9784;BME280;4931;44.874;-1.092;2024-02-21T02:31:23;102282.34;;;5.39;100.00
9784;BME280;4931;44.874;-1.092;2024-02-21T02:33:49;102277.09;;;5.38;100.00
9784;BME280;4931;44.874;-1.092;2024-02-21T02:36:15;102259.72;;;5.39;100.00
9784;BME280;4931;44.874;-1.092;2024-02-21T02:38:40;102251.97;;;5.29;100.00
9784;BME280;4931;44.874;-1.092;2024-02-21T02:41:06;102241.28;;;5.27;100.00
9784;BME280;4931;44.874;-1.092;2024-02-21T02:43:31;102238.78;;;5.26;100.00
9784;BME280;4931;44.874;-1.092;2024-02-21T02:45:57;102232.09;;;5.22;100.00
9784;BME280;4931;44.874;-1.092;2024-02-21T02:48:22;102240.03;;;5.30;100.00
9784;BME280;4931;44.874;-1.092;2024-02-21T02:50:48;102240.25;;;5.35;100.00
9784;BME280;4931;44.874;-1.092;2024-02-21T02:53:15;102235.47;;;5.37;100.00
9784;BME280;4931;44.874;-1.092;2024-02-21T02:55:40;102238.34;;;5.29;100.00
9784;BME280;4931;44.874;-1.092;2024-02-21T02:58:05;102232.53;;;5.32;100.00
9784;BME280;4931;44.874;-1.092;2024-02-21T03:00:31;102230.63;;;5.32;100.00
9784;BME280;4931;44.874;-1.092;2024-02-21T03:02:56;102232.91;;;5.29;100.00
9784;BME280;4931;44.874;-1.092;2024-02-21T03:05:22;102225.19;;;5.32;100.00
9784;BME280;4931;44.874;-1.092;2024-02-21T03:07:48;102231.66;;;5.25;100.00
9784;BME280;4931;44.874;-1.092;2024-02-21T03:10:16;102218.06;;;5.25;100.00
9784;BME280;4931;44.874;-1.092;2024-02-21T03:12:42;102223.50;;;5.31;100.00
9784;BME280;4931;44.874;-1.092;2024-02-21T03:15:08;102221.63;;;5.32;100.00
9784;BME280;4931;44.874;-1.092;2024-02-21T03:17:34;102222.47;;;5.26;100.00
9784;BME280;4931;44.874;-1.092;2024-02-21T03:20:03;102209.50;;;5.28;100.00
9784;BME280;4931;44.874;-1.092;2024-02-21T03:22:38;102217.66;;;5.28;100.00
9784;BME280;4931;44.874;-1.092;2024-02-21T03:25:04;102217.44;;;5.23;100.00
9784;BME280;4931;44.874;-1.092;2024-02-21T03:27:29;102204.88;;;5.22;100.00
9784;BME280;4931;44.874;-1.092;2024-02-21T03:29:55;102217.84;;;5.20;100.00
9784;BME280;4931;44.874;-1.092;2024-02-21T03:32:20;102215.75;;;5.15;100.00
9784;BME280;4931;44.874;-1.092;2024-02-21T03:34:46;102212.41;;;5.20;100.00
9784;BME280;4931;44.874;-1.092;2024-02-21T03:37:12;102211.56;;;5.12;100.00
9784;BME280;4931;44.874;-1.092;2024-02-21T03:39:39;102207.38;;;5.03;100.00
9784;BME280;4931;44.874;-1.092;2024-02-21T03:42:05;102209.03;;;4.97;100.00
9784;BME280;4931;44.874;-1.092;2024-02-21T03:44:31;102205.47;;;4.97;100.00
9784;BME280;4931;44.874;-1.092;2024-02-21T03:46:58;102205.69;;;5.02;100.00
9784;BME280;4931;44.874;-1.092;2024-02-21T03:49:24;102197.09;;;4.98;100.00
9784;BME280;4931;44.874;-1.092;2024-02-21T03:51:49;102185.38;;;4.85;100.00
9784;BME280;4931;44.874;-1.092;2024-02-21T03:54:15;102184.31;;;4.92;100.00
9784;BME280;4931;44.874;-1.092;2024-02-21T03:56:40;102189.59;;;5.01;100.00
9784;BME280;4931;44.874;-1.092;2024-02-21T03:59:09;102186.81;;;4.80;100.00
9784;BME280;4931;44.874;-1.092;2024-02-21T04:01:35;102190.13;;;4.56;100.00
9784;BME280;4931;44.874;-1.092;2024-02-21T04:04:01;102205.97;;;4.45;100.00
9784;BME280;4931;44.874;-1.092;2024-02-21T04:06:26;102210.56;;;4.45;100.00
9784;BME280;4931;44.874;-1.092;2024-02-21T04:08:52;102209.16;;;4.56;100.00
9784;BME280;4931;44.874;-1.092;2024-02-21T04:11:17;102204.34;;;4.64;100.00
9784;BME280;4931;44.874;-1.092;2024-02-21T04:13:44;102201.03;;;4.69;100.00
9784;BME280;4931;44.874;-1.092;2024-02-21T04:16:10;102203.09;;;4.67;100.00
9784;BME280;4931;44.874;-1.092;2024-02-21T04:18:36;102199.34;;;4.61;100.00
9784;BME280;4931;44.874;-1.092;2024-02-21T04:21:01;102194.34;;;4.65;100.00
9784;BME280;4931;44.874;-1.092;2024-02-21T04:23:26;102187.22;;;4.64;100.00
9784;BME280;4931;44.874;-1.092;2024-02-21T04:25:52;102190.56;;;4.66;100.00
9784;BME280;4931;44.874;-1.092;2024-02-21T04:28:17;102190.16;;;4.62;100.00
9784;BME280;4931;44.874;-1.092;2024-02-21T04:30:43;102181.94;;;4.49;100.00
9784;BME280;4931;44.874;-1.092;2024-02-21T04:33:08;102188.44;;;4.55;100.00
9784;BME280;4931;44.874;-1.092;2024-02-21T04:35:36;102191.41;;;4.60;100.00
9784;BME280;4931;44.874;-1.092;2024-02-21T04:38:01;102190.13;;;4.56;100.00
9784;BME280;4931;44.874;-1.092;2024-02-21T04:40:27;102189.69;;;4.52;100.00
9784;BME280;4931;44.874;-1.092;2024-02-21T04:42:52;102186.34;;;4.57;100.00
9784;BME280;4931;44.874;-1.092;2024-02-21T04:45:18;102189.28;;;4.62;100.00
9784;BME280;4931;44.874;-1.092;2024-02-21T04:47:43;102184.72;;;4.62;100.00
9784;BME280;4931;44.874;-1.092;2024-02-21T04:50:09;102175.31;;;4.65;100.00
9784;BME280;4931;44.874;-1.092;2024-02-21T04:52:35;102183.88;;;4.69;100.00
9784;BME280;4931;44.874;-1.092;2024-02-21T04:55:00;102185.13;;;4.73;100.00
9784;BME280;4931;44.874;-1.092;2024-02-21T04:57:26;102190.19;;;4.82;100.00
9784;BME280;4931;44.874;-1.092;2024-02-21T04:59:51;102185.19;;;4.93;100.00
9784;BME280;4931;44.874;-1.092;2024-02-21T05:02:17;102185.19;;;4.93;100.00
9784;BME280;4931;44.874;-1.092;2024-02-21T05:04:43;102183.72;;;4.84;100.00
9784;BME280;4931;44.874;-1.092;2024-02-21T05:07:09;102177.81;;;4.73;100.00
9784;BME280;4931;44.874;-1.092;2024-02-21T05:09:36;102171.34;;;4.74;100.00
9784;BME280;4931;44.874;-1.092;2024-02-21T05:12:01;102163.81;;;4.70;100.00
9784;BME280;4931;44.874;-1.092;2024-02-21T05:14:27;102175.53;;;4.77;100.00
9784;BME280;4931;44.874;-1.092;2024-02-21T05:16:53;102166.31;;;4.78;100.00
9784;BME280;4931;44.874;-1.092;2024-02-21T05:19:18;102164.03;;;4.81;100.00
9784;BME280;4931;44.874;-1.092;2024-02-21T05:21:44;102160.91;;;4.85;100.00
9784;BME280;4931;44.874;-1.092;2024-02-21T05:24:10;102156.72;;;4.89;100.00
9784;BME280;4931;44.874;-1.092;2024-02-21T05:26:35;102151.47;;;4.87;100.00
9784;BME280;4931;44.874;-1.092;2024-02-21T05:29:01;102150.88;;;4.92;100.00
9784;BME280;4931;44.874;-1.092;2024-02-21T05:31:26;102137.50;;;4.90;100.00
9784;BME280;4931;44.874;-1.092;2024-02-21T05:34:07;102142.06;;;4.90;100.00
9784;BME280;4931;44.874;-1.092;2024-02-21T05:36:33;102128.25;;;4.71;100.00
9784;BME280;4931;44.874;-1.092;2024-02-21T05:38:59;102122.78;;;4.51;100.00
9784;BME280;4931;44.874;-1.092;2024-02-21T05:41:24;102123.19;;;4.41;100.00
9784;BME280;4931;44.874;-1.092;2024-02-21T05:43:50;102121.97;;;4.51;100.00
9784;BME280;4931;44.874;-1.092;2024-02-21T05:46:19;102116.09;;;4.54;100.00
9784;BME280;4931;44.874;-1.092;2024-02-21T05:48:44;102110.88;;;4.52;100.00
9784;BME280;4931;44.874;-1.092;2024-02-21T05:51:11;102116.09;;;4.54;100.00
9784;BME280;4931;44.874;-1.092;2024-02-21T05:53:36;102097.91;;;4.47;100.00
9784;BME280;4931;44.874;-1.092;2024-02-21T05:56:10;102095.81;;;4.43;100.00
9784;BME280;4931;44.874;-1.092;2024-02-21T05:58:36;102100.22;;;4.51;100.00
9784;BME280;4931;44.874;-1.092;2024-02-21T06:01:01;102101.69;;;4.60;100.00
9784;BME280;4931;44.874;-1.092;2024-02-21T06:03:29;102102.94;;;4.64;100.00
9784;BME280;4931;44.874;-1.092;2024-02-21T06:05:54;102098.13;;;4.66;100.00
9784;BME280;4931;44.874;-1.092;2024-02-21T06:08:20;102093.94;;;4.63;100.00
9784;BME280;4931;44.874;-1.092;2024-02-21T06:10:46;102089.78;;;4.68;100.00
9784;BME280;4931;44.874;-1.092;2024-02-21T06:13:12;102085.41;;;4.73;100.00
9784;BME280;4931;44.874;-1.092;2024-02-21T06:15:37;102081.84;;;4.79;100.00
9784;BME280;4931;44.874;-1.092;2024-02-21T06:18:03;102073.91;;;4.85;100.00
9784;BME280;4931;44.874;-1.092;2024-02-21T06:20:29;102084.34;;;4.88;100.00
9784;BME280;4931;44.874;-1.092;2024-02-21T06:22:54;102084.34;;;4.88;100.00
9784;BME280;4931;44.874;-1.092;2024-02-21T06:25:19;102083.09;;;4.90;100.00
9784;BME280;4931;44.874;-1.092;2024-02-21T06:27:45;102071.59;;;4.81;100.00
9784;BME280;4931;44.874;-1.092;2024-02-21T06:30:11;102075.34;;;4.80;100.00
9784;BME280;4931;44.874;-1.092;2024-02-21T06:32:36;102077.66;;;4.84;100.00
9784;BME280;4931;44.874;-1.092;2024-02-21T06:35:02;102079.34;;;4.85;100.00
9784;BME280;4931;44.874;-1.092;2024-02-21T06:37:28;102071.78;;;4.87;100.00
9784;BME280;4931;44.874;-1.092;2024-02-21T06:39:53;102073.47;;;4.88;100.00
9784;BME280;4931;44.874;-1.092;2024-02-21T06:42:18;102071.78;;;4.87;100.00
9784;BME280;4931;44.874;-1.092;2024-02-21T06:44:44;102069.28;;;4.98;100.00
9784;BME280;4931;44.874;-1.092;2024-02-21T06:47:10;102067.00;;;4.95;100.00
9784;BME280;4931;44.874;-1.092;2024-02-21T06:49:35;102068.03;;;4.94;100.00
9784;BME280;4931;44.874;-1.092;2024-02-21T06:52:04;102071.78;;;5.00;100.00
9784;BME280;4931;44.874;-1.092;2024-02-21T06:54:30;102075.16;;;5.02;100.00
9784;BME280;4931;44.874;-1.092;2024-02-21T06:56:56;102079.31;;;5.05;100.00
9784;BME280;4931;44.874;-1.092;2024-02-21T06:59:21;102084.56;;;5.06;100.00
9784;BME280;4931;44.874;-1.092;2024-02-21T07:01:49;102090.41;;;5.03;100.00
9784;BME280;4931;44.874;-1.092;2024-02-21T07:04:14;102104.03;;;5.03;100.00
9784;BME280;4931;44.874;-1.092;2024-02-21T07:06:40;102108.59;;;5.16;100.00
9784;BME280;4931;44.874;-1.092;2024-02-21T07:09:06;102107.34;;;5.25;100.00
9784;BME280;4931;44.874;-1.092;2024-02-21T07:11:31;102111.53;;;5.28;100.00
9784;BME280;4931;44.874;-1.092;2024-02-21T07:13:57;102104.41;;;5.34;100.00
9784;BME280;4931;44.874;-1.092;2024-02-21T07:16:22;102101.91;;;5.32;100.00
9784;BME280;4931;44.874;-1.092;2024-02-21T07:18:48;102111.91;;;5.38;100.00
9784;BME280;4931;44.874;-1.092;2024-02-21T07:21:13;102106.91;;;5.35;100.00
9784;BME280;4931;44.874;-1.092;2024-02-21T07:23:43;102106.69;;;5.43;100.00
9784;BME280;4931;44.874;-1.092;2024-02-21T07:26:08;102108.09;;;5.59;100.00
9784;BME280;4931;44.874;-1.092;2024-02-21T07:28:34;102097.63;;;5.63;100.00
9784;BME280;4931;44.874;-1.092;2024-02-21T07:30:59;102091.56;;;5.61;100.00
9784;BME280;4931;44.874;-1.092;2024-02-21T07:33:25;102094.50;;;5.66;100.00
9784;BME280;4931;44.874;-1.092;2024-02-21T07:35:50;102100.09;;;5.71;100.00
9784;BME280;4931;44.874;-1.092;2024-02-21T07:38:16;102097.38;;;5.71;100.00
9784;BME280;4931;44.874;-1.092;2024-02-21T07:40:46;102108.06;;;5.79;100.00
9784;BME280;4931;44.874;-1.092;2024-02-21T07:43:11;102108.47;;;5.76;100.00
9784;BME280;4931;44.874;-1.092;2024-02-21T07:45:37;102098.41;;;5.84;100.00
9784;BME280;4931;44.874;-1.092;2024-02-21T07:48:05;102104.25;;;5.87;100.00
9784;BME280;4931;44.874;-1.092;2024-02-21T07:50:30;102091.28;;;5.82;100.00
9784;BME280;4931;44.874;-1.092;2024-02-21T07:52:56;102081.66;;;5.80;100.00
9784;BME280;4931;44.874;-1.092;2024-02-21T07:55:21;102081.63;;;5.87;100.00
9784;BME280;4931;44.874;-1.092;2024-02-21T07:57:47;102079.50;;;5.95;100.00
9784;BME280;4931;44.874;-1.092;2024-02-21T08:00:12;102068.53;;;6.15;100.00
9784;BME280;4931;44.874;-1.092;2024-02-21T08:02:45;102070.13;;;6.30;100.00
9784;BME280;4931;44.874;-1.092;2024-02-21T08:05:11;102074.69;;;6.36;100.00
9784;BME280;4931;44.874;-1.092;2024-02-21T08:07:40;102078.56;;;6.54;100.00
9784;BME280;4931;44.874;-1.092;2024-02-21T08:10:06;102080.16;;;6.36;100.00
9784;BME280;4931;44.874;-1.092;2024-02-21T08:12:34;102076.28;;;6.51;100.00
9784;BME280;4931;44.874;-1.092;2024-02-21T08:15:01;102081.34;;;6.72;100.00
9784;BME280;4931;44.874;-1.092;2024-02-21T08:17:26;102070.97;;;6.88;100.00
9784;BME280;4931;44.874;-1.092;2024-02-21T08:19:51;102076.47;;;7.06;100.00
9784;BME280;4931;44.874;-1.092;2024-02-21T08:22:17;102081.06;;;7.31;100.00
9784;BME280;4931;44.874;-1.092;2024-02-21T08:24:42;102072.88;;;7.31;100.00
9784;BME280;4931;44.874;-1.092;2024-02-21T08:27:08;102070.44;;;7.23;100.00
9784;BME280;4931;44.874;-1.092;2024-02-21T08:29:34;102078.16;;;7.26;100.00
9784;BME280;4931;44.874;-1.092;2024-02-21T08:31:59;102077.28;;;7.51;100.00
9784;BME280;4931;44.874;-1.092;2024-02-21T08:34:24;102086.47;;;7.75;100.00
9784;BME280;4931;44.874;-1.092;2024-02-21T08:36:50;102096.28;;;7.94;100.00
9784;BME280;4931;44.874;-1.092;2024-02-21T08:39:15;102097.16;;;7.95;100.00
9784;BME280;4931;44.874;-1.092;2024-02-21T08:41:42;102092.91;;;7.80;100.00
9784;BME280;4931;44.874;-1.092;2024-02-21T08:44:08;102085.84;;;7.91;100.00
9784;BME280;4931;44.874;-1.092;2024-02-21T08:46:33;102085.31;;;8.01;100.00
9784;BME280;4931;44.874;-1.092;2024-02-21T08:48:59;102082.53;;;8.20;100.00
9784;BME280;4931;44.874;-1.092;2024-02-21T08:51:24;102071.66;;;7.82;100.00
9784;BME280;4931;44.874;-1.092;2024-02-21T08:53:50;102072.69;;;8.00;100.00
9784;BME280;4931;44.874;-1.092;2024-02-21T08:56:17;102064.84;;;7.92;100.00
9784;BME280;4931;44.874;-1.092;2024-02-21T08:58:43;102050.75;;;8.07;100.00
9784;BME280;4931;44.874;-1.092;2024-02-21T09:01:08;102063.06;;;8.28;100.00
9784;BME280;4931;44.874;-1.092;2024-02-21T09:03:37;102047.69;;;8.45;100.00
9784;BME280;4931;44.874;-1.092;2024-02-21T09:06:06;102054.75;;;8.65;100.00
9784;BME280;4931;44.874;-1.092;2024-02-21T09:08:32;102051.03;;;8.47;100.00
9784;BME280;4931;44.874;-1.092;2024-02-21T09:10:59;102050.69;;;8.68;100.00
9784;BME280;4931;44.874;-1.092;2024-02-21T09:13:24;102040.97;;;8.84;100.00
9784;BME280;4931;44.874;-1.092;2024-02-21T09:15:50;102033.25;;;8.80;100.00
9784;BME280;4931;44.874;-1.092;2024-02-21T09:18:16;102033.00;;;8.94;100.00
9784;BME280;4931;44.874;-1.092;2024-02-21T09:20:42;102024.22;;;8.80;100.00
9784;BME280;4931;44.874;-1.092;2024-02-21T09:23:08;102016.44;;;8.65;100.00
9784;BME280;4931;44.874;-1.092;2024-02-21T09:25:33;102023.03;;;8.88;100.00
9784;BME280;4931;44.874;-1.092;2024-02-21T09:28:01;102030.50;;;9.04;100.00
9784;BME280;4931;44.874;-1.092;2024-02-21T09:30:27;102018.84;;;9.09;100.00
9784;BME280;4931;44.874;-1.092;2024-02-21T09:32:53;102021.81;;;9.07;100.00
9784;BME280;4931;44.874;-1.092;2024-02-21T09:35:18;102015.63;;;9.00;100.00
9784;BME280;4931;44.874;-1.092;2024-02-21T09:37:44;102015.84;;;9.34;100.00
9784;BME280;4931;44.874;-1.092;2024-02-21T09:40:10;102005.78;;;9.52;100.00
9784;BME280;4931;44.874;-1.092;2024-02-21T09:42:39;102004.34;;;9.61;100.00
9784;BME280;4931;44.874;-1.092;2024-02-21T09:47:48;101997.88;;;9.67;100.00
9784;BME280;4931;44.874;-1.092;2024-02-21T09:50:17;101986.44;;;9.70;100.00
9784;BME280;4931;44.874;-1.092;2024-02-21T09:52:43;101986.16;;;10.01;100.00
9784;BME280;4931;44.874;-1.092;2024-02-21T09:55:10;101981.72;;;10.11;100.00
9784;BME280;4931;44.874;-1.092;2024-02-21T09:57:38;101975.22;;;10.18;100.00
9784;BME280;4931;44.874;-1.092;2024-02-21T10:00:05;101986.19;;;10.18;100.00
9784;BME280;4931;44.874;-1.092;2024-02-21T10:02:33;101986.44;;;10.45;100.00
9784;BME280;4931;44.874;-1.092;2024-02-21T10:04:59;102002.41;;;10.65;100.00
9784;BME280;4931;44.874;-1.092;2024-02-21T10:07:25;101995.72;;;10.61;100.00
9784;BME280;4931;44.874;-1.092;2024-02-21T10:10:01;101986.41;;;10.79;100.00
9784;BME280;4931;44.874;-1.092;2024-02-21T10:12:26;101987.19;;;10.40;100.00
9784;BME280;4931;44.874;-1.092;2024-02-21T10:15:03;101995.72;;;10.44;100.00
9784;BME280;4931;44.874;-1.092;2024-02-21T10:17:29;101980.94;;;10.62;100.00
9784;BME280;4931;44.874;-1.092;2024-02-21T10:19:54;101979.66;;;10.87;100.00
9784;BME280;4931;44.874;-1.092;2024-02-21T10:22:20;101977.94;;;10.80;100.00
9784;BME280;4931;44.874;-1.092;2024-02-21T10:24:50;101967.06;;;11.08;100.00
9784;BME280;4931;44.874;-1.092;2024-02-21T10:27:16;101973.22;;;11.37;100.00
9784;BME280;4931;44.874;-1.092;2024-02-21T10:29:41;101967.16;;;11.35;100.00
9784;BME280;4931;44.874;-1.092;2024-02-21T10:32:10;101956.53;;;11.22;100.00
9784;BME280;4931;44.874;-1.092;2024-02-21T10:34:38;101955.19;;;11.46;100.00
9784;BME280;4931;44.874;-1.092;2024-02-21T10:37:10;101957.94;;;11.46;100.00
9784;BME280;4931;44.874;-1.092;2024-02-21T10:39:40;101962.53;;;11.41;100.00
9784;BME280;4931;44.874;-1.092;2024-02-21T10:42:06;101960.50;;;11.53;100.00
9784;BME280;4931;44.874;-1.092;2024-02-21T10:44:37;101960.56;;;11.58;100.00
9784;BME280;4931;44.874;-1.092;2024-02-21T10:47:07;101965.81;;;11.38;100.00
9784;BME280;4931;44.874;-1.092;2024-02-21T10:49:37;101960.03;;;11.61;100.00
9784;BME280;4931;44.874;-1.092;2024-02-21T10:54:53;101965.97;;;11.75;100.00
9784;BME280;4931;44.874;-1.092;2024-02-21T10:57:22;101968.13;;;11.73;100.00
9784;BME280;4931;44.874;-1.092;2024-02-21T10:59:48;101967.59;;;11.76;100.00
9784;BME280;4931;44.874;-1.092;2024-02-21T11:02:15;101965.44;;;11.78;100.00
9784;BME280;4931;44.874;-1.092;2024-02-21T11:04:41;101965.28;;;11.63;100.00
9784;BME280;4931;44.874;-1.092;2024-02-21T11:07:07;101971.50;;;11.53;100.00
9784;BME280;4931;44.874;-1.092;2024-02-21T11:09:33;101964.25;;;11.69;100.00
9784;BME280;4931;44.874;-1.092;2024-02-21T11:12:03;101971.44;;;11.48;100.00
9784;BME280;4931;44.874;-1.092;2024-02-21T11:14:29;101962.41;;;11.53;100.00
9784;BME280;4931;44.874;-1.092;2024-02-21T11:16:58;101964.78;;;11.66;100.00
9784;BME280;4931;44.874;-1.092;2024-02-21T11:19:27;101956.06;;;11.74;100.00
9784;BME280;4931;44.874;-1.092;2024-02-21T11:21:55;101949.22;;;11.77;100.00
9784;BME280;4931;44.874;-1.092;2024-02-21T11:24:30;101944.22;;;11.74;100.00
9784;BME280;4931;44.874;-1.092;2024-02-21T11:27:07;101945.00;;;11.69;100.00
9784;BME280;4931;44.874;-1.092;2024-02-21T11:29:40;101938.69;;;11.96;100.00
9784;BME280;4931;44.874;-1.092;2024-02-21T11:32:09;101946.38;;;11.94;100.00
9784;BME280;4931;44.874;-1.092;2024-02-21T11:34:35;101953.63;;;12.05;100.00
9784;BME280;4931;44.874;-1.092;2024-02-21T11:37:00;101958.78;;;12.29;100.00
9784;BME280;4931;44.874;-1.092;2024-02-21T11:39:26;101972.00;;;12.27;100.00
9784;BME280;4931;44.874;-1.092;2024-02-21T11:42:05;101966.59;;;12.37;100.00
9784;BME280;4931;44.874;-1.092;2024-02-21T11:44:37;101975.16;;;12.46;100.00
9784;BME280;4931;44.874;-1.092;2024-02-21T11:47:07;101967.78;;;12.52;100.00
9784;BME280;4931;44.874;-1.092;2024-02-21T11:49:38;101969.81;;;12.67;100.00
9784;BME280;4931;44.874;-1.092;2024-02-21T11:52:05;101965.19;;;12.77;100.00
9784;BME280;4931;44.874;-1.092;2024-02-21T11:54:31;101964.84;;;13.11;100.00
9784;BME280;4931;44.874;-1.092;2024-02-21T11:56:57;101964.66;;;13.28;100.00
9784;BME280;4931;44.874;-1.092;2024-02-21T11:59:22;101949.06;;;13.50;100.00
9784;BME280;4931;44.874;-1.092;2024-02-21T12:01:52;101936.13;;;13.66;100.00
9784;BME280;4931;44.874;-1.092;2024-02-21T12:04:18;101933.38;;;13.66;100.00
9784;BME280;4931;44.874;-1.092;2024-02-21T12:06:45;101928.75;;;13.82;100.00
9784;BME280;4931;44.874;-1.092;2024-02-21T12:09:17;101921.56;;;13.70;100.00
9784;BME280;4931;44.874;-1.092;2024-02-21T12:11:43;101917.72;;;13.82;100.00
9784;BME280;4931;44.874;-1.092;2024-02-21T12:14:09;101917.19;;;13.95;100.00
9784;BME280;4931;44.874;-1.092;2024-02-21T12:16:35;101905.28;;;13.94;100.00
9784;BME280;4931;44.874;-1.092;2024-02-21T12:19:03;101897.59;;;14.07;100.00
9784;BME280;4931;44.874;-1.092;2024-02-21T12:21:33;101890.94;;;14.18;100.00
9784;BME280;4931;44.874;-1.092;2024-02-21T12:24:28;101878.84;;;13.99;100.00
9784;BME280;4931;44.874;-1.092;2024-02-21T12:26:55;101883.50;;;13.83;100.00
9784;BME280;4931;44.874;-1.092;2024-02-21T12:29:24;101880.19;;;13.75;100.00
9784;BME280;4931;44.874;-1.092;2024-02-21T12:31:50;101880.22;;;13.91;100.00
9784;BME280;4931;44.874;-1.092;2024-02-21T12:34:16;101869.72;;;13.93;100.00
9784;BME280;4931;44.874;-1.092;2024-02-21T12:36:43;101859.53;;;13.93;100.00
9784;BME280;4931;44.874;-1.092;2024-02-21T12:39:10;101840.50;;;13.82;100.00
9784;BME280;4931;44.874;-1.092;2024-02-21T12:41:36;101840.47;;;14.13;100.00
9784;BME280;4931;44.874;-1.092;2024-02-21T12:44:07;101835.25;;;14.06;100.00
9784;BME280;4931;44.874;-1.092;2024-02-21T12:46:35;101840.47;;;14.02;100.00
9784;BME280;4931;44.874;-1.092;2024-02-21T12:49:04;101845.47;;;13.95;100.00
9784;BME280;4931;44.874;-1.092;2024-02-21T12:51:30;101846.00;;;14.13;100.00
9784;BME280;4931;44.874;-1.092;2024-02-21T12:53:56;101846.84;;;14.13;100.00
9784;BME280;4931;44.874;-1.092;2024-02-21T12:56:22;101846.00;;;14.02;100.00
9784;BME280;4931;44.874;-1.092;2024-02-21T12:58:49;101843.81;;;14.04;100.00